createdAt,value
2017-06-26T00:00:07.957Z,1007.14
2017-06-26T00:00:48.848Z,1007.14
2017-06-26T00:01:29.744Z,1007.15
2017-06-26T00:02:10.640Z,1007.15
2017-06-26T00:02:51.526Z,1007.12
2017-06-26T00:03:32.416Z,1007.13
2017-06-26T00:04:13.311Z,1007.12
2017-06-26T00:04:54.196Z,1007.1
2017-06-26T00:05:35.088Z,1007.14
2017-06-26T00:06:15.970Z,1007.12
2017-06-26T00:06:56.847Z,1007.09
2017-06-26T00:07:37.736Z,1007.14
2017-06-26T00:08:18.634Z,1007.11
2017-06-26T00:08:59.510Z,1007.1
2017-06-26T00:09:40.400Z,1007.12
2017-06-26T00:10:21.286Z,1007.12
2017-06-26T00:11:02.175Z,1007.15
2017-06-26T00:11:43.066Z,1007.14
2017-06-26T00:12:23.944Z,1007.12
2017-06-26T00:13:04.829Z,1007.14
2017-06-26T00:13:45.718Z,1007.13
2017-06-26T00:14:26.596Z,1007.15
2017-06-26T00:15:07.499Z,1007.14
2017-06-26T00:15:48.394Z,1007.17
2017-06-26T00:16:29.286Z,1007.15
2017-06-26T00:17:10.179Z,1007.15
2017-06-26T00:17:51.059Z,1007.16
2017-06-26T00:18:31.935Z,1007.15
2017-06-26T00:19:12.835Z,1007.15
2017-06-26T00:19:53.725Z,1007.15
2017-06-26T00:20:34.607Z,1007.14
2017-06-26T00:21:15.505Z,1007.12
2017-06-26T00:21:56.375Z,1007.14
2017-06-26T00:22:37.254Z,1007.1
2017-06-26T00:23:18.134Z,1007.12
2017-06-26T00:23:59.029Z,1007.09
2017-06-26T00:24:39.910Z,1007.09
2017-06-26T00:25:20.810Z,1007
2017-06-26T00:26:01.704Z,1006.99
2017-06-26T00:26:42.602Z,1007.04
2017-06-26T00:27:23.488Z,1007.02
2017-06-26T00:28:04.382Z,1007.02
2017-06-26T00:28:45.263Z,1007
2017-06-26T00:29:26.140Z,1007.02
2017-06-26T00:30:07.020Z,1007.01
2017-06-26T00:30:47.915Z,1007.01
2017-06-26T00:31:28.798Z,1007.01
2017-06-26T00:32:09.703Z,1007.01
2017-06-26T00:32:50.574Z,1006.98
2017-06-26T00:33:31.475Z,1006.96
2017-06-26T00:34:12.362Z,1006.92
2017-06-26T00:34:53.236Z,1006.92
2017-06-26T00:35:34.105Z,1006.86
2017-06-26T00:36:15.010Z,1006.82
2017-06-26T00:36:55.904Z,1006.78
2017-06-26T00:37:36.766Z,1006.81
2017-06-26T00:38:17.687Z,1006.81
2017-06-26T00:38:58.573Z,1006.81
2017-06-26T00:39:39.459Z,1006.85
2017-06-26T00:40:20.370Z,1006.89
2017-06-26T00:41:01.258Z,1006.91
2017-06-26T00:41:42.121Z,1006.89
2017-06-26T00:42:23.014Z,1006.93
2017-06-26T00:43:03.896Z,1006.94
2017-06-26T00:43:44.817Z,1006.9
2017-06-26T00:44:25.707Z,1006.87
2017-06-26T00:45:06.614Z,1006.92
2017-06-26T00:45:47.479Z,1006.88
2017-06-26T00:46:28.380Z,1006.89
2017-06-26T00:47:09.266Z,1006.88
2017-06-26T00:47:50.147Z,1006.89
2017-06-26T00:48:31.041Z,1006.88
2017-06-26T00:49:11.950Z,1006.88
2017-06-26T00:49:52.845Z,1006.88
2017-06-26T00:50:33.727Z,1006.88
2017-06-26T00:51:14.608Z,1006.88
2017-06-26T00:51:55.497Z,1006.89
2017-06-26T00:52:36.378Z,1006.86
2017-06-26T00:53:17.271Z,1006.83
2017-06-26T00:53:58.159Z,1006.84
2017-06-26T00:54:39.040Z,1006.84
2017-06-26T00:55:19.924Z,1006.9
2017-06-26T00:56:00.807Z,1006.91
2017-06-26T00:56:41.698Z,1006.87
2017-06-26T00:57:22.567Z,1006.93
2017-06-26T00:58:03.452Z,1006.9
2017-06-26T00:58:44.342Z,1006.96
2017-06-26T00:59:25.242Z,1006.93
2017-06-26T01:00:06.124Z,1006.95
2017-06-26T01:00:46.997Z,1006.97
2017-06-26T01:01:27.894Z,1006.99
2017-06-26T01:02:08.777Z,1006.95
2017-06-26T01:02:49.655Z,1006.98
2017-06-26T01:03:30.551Z,1006.98
2017-06-26T01:04:11.456Z,1006.94
2017-06-26T01:04:52.345Z,1006.87
2017-06-26T01:05:33.247Z,1006.94
2017-06-26T01:06:14.123Z,1006.94
2017-06-26T01:06:55.003Z,1006.95
2017-06-26T01:07:35.906Z,1006.97
2017-06-26T01:08:16.789Z,1006.95
2017-06-26T01:08:57.696Z,1006.98
2017-06-26T01:09:38.582Z,1006.94
2017-06-26T01:10:19.470Z,1006.92
2017-06-26T01:11:00.376Z,1006.89
2017-06-26T01:11:41.293Z,1006.91
2017-06-26T01:12:22.169Z,1006.92
2017-06-26T01:13:03.025Z,1006.93
2017-06-26T01:13:43.915Z,1006.92
2017-06-26T01:14:24.810Z,1006.92
2017-06-26T01:16:33.819Z,1006.95
2017-06-26T01:17:14.708Z,1006.93
2017-06-26T01:17:55.582Z,1006.94
2017-06-26T01:18:36.478Z,1006.98
2017-06-26T01:19:17.372Z,1006.98
2017-06-26T01:19:58.280Z,1007.01
2017-06-26T01:20:39.159Z,1006.98
2017-06-26T01:21:20.046Z,1007
2017-06-26T01:22:00.917Z,1006.96
2017-06-26T01:22:41.806Z,1007
2017-06-26T01:23:22.690Z,1007.06
2017-06-26T01:24:03.580Z,1007
2017-06-26T01:24:44.451Z,1007.02
2017-06-26T01:25:25.332Z,1007.04
2017-06-26T01:26:06.249Z,1007.03
2017-06-26T01:26:47.152Z,1007.01
2017-06-26T01:27:28.028Z,1007.01
2017-06-26T01:28:08.931Z,1007.01
2017-06-26T01:28:49.808Z,1007.01
2017-06-26T01:29:30.688Z,1007.01
2017-06-26T01:30:11.587Z,1007.05
2017-06-26T01:30:52.469Z,1007
2017-06-26T01:31:33.363Z,1007.04
2017-06-26T01:32:14.248Z,1006.98
2017-06-26T01:32:55.139Z,1007.01
2017-06-26T01:33:36.027Z,1006.97
2017-06-26T01:34:16.915Z,1006.98
2017-06-26T01:34:57.799Z,1006.99
2017-06-26T01:35:38.685Z,1006.92
2017-06-26T01:36:19.571Z,1006.91
2017-06-26T01:37:00.461Z,1006.87
2017-06-26T01:37:41.349Z,1006.86
2017-06-26T01:38:22.237Z,1006.83
2017-06-26T01:39:03.111Z,1006.79
2017-06-26T01:39:44.001Z,1006.76
2017-06-26T01:40:24.895Z,1006.78
2017-06-26T01:41:05.794Z,1006.75
2017-06-26T01:41:46.668Z,1006.76
2017-06-26T01:42:27.542Z,1006.76
2017-06-26T01:43:08.431Z,1006.77
2017-06-26T01:43:49.326Z,1006.74
2017-06-26T01:44:30.199Z,1006.75
2017-06-26T01:45:11.082Z,1006.76
2017-06-26T01:45:51.970Z,1006.7
2017-06-26T01:46:32.850Z,1006.7
2017-06-26T01:47:13.734Z,1006.62
2017-06-26T01:47:54.625Z,1006.62
2017-06-26T01:48:35.512Z,1006.62
2017-06-26T01:49:16.423Z,1006.6
2017-06-26T01:49:57.313Z,1006.56
2017-06-26T01:50:38.224Z,1006.58
2017-06-26T01:51:19.101Z,1006.54
2017-06-26T01:51:59.992Z,1006.49
2017-06-26T01:52:40.874Z,1006.47
2017-06-26T01:53:21.766Z,1006.46
2017-06-26T01:54:02.654Z,1006.47
2017-06-26T01:54:43.537Z,1006.52
2017-06-26T01:55:24.426Z,1006.54
2017-06-26T01:56:05.312Z,1006.62
2017-06-26T01:56:46.200Z,1006.62
2017-06-26T01:57:27.090Z,1006.64
2017-06-26T01:58:08.003Z,1006.6
2017-06-26T01:58:48.890Z,1006.64
2017-06-26T01:59:29.780Z,1006.64
2017-06-26T02:00:10.666Z,1006.65
2017-06-26T02:00:51.551Z,1006.7
2017-06-26T02:01:32.445Z,1006.69
2017-06-26T02:02:13.331Z,1006.7
2017-06-26T02:02:54.217Z,1006.73
2017-06-26T02:03:35.111Z,1006.73
2017-06-26T02:04:16.002Z,1006.72
2017-06-26T02:04:56.888Z,1006.72
2017-06-26T02:05:37.782Z,1006.75
2017-06-26T02:06:18.673Z,1006.72
2017-06-26T02:06:59.565Z,1006.74
2017-06-26T02:07:40.455Z,1006.71
2017-06-26T02:08:21.348Z,1006.72
2017-06-26T02:09:02.255Z,1006.67
2017-06-26T02:09:43.147Z,1006.71
2017-06-26T02:10:24.030Z,1006.7
2017-06-26T02:11:04.895Z,1006.68
2017-06-26T02:11:45.785Z,1006.67
2017-06-26T02:12:26.655Z,1006.65
2017-06-26T02:13:07.605Z,1006.64
2017-06-26T02:13:48.489Z,1006.6
2017-06-26T02:14:29.380Z,1006.58
2017-06-26T02:15:10.264Z,1006.6
2017-06-26T02:15:51.153Z,1006.59
2017-06-26T02:16:32.050Z,1006.59
2017-06-26T02:17:12.930Z,1006.55
2017-06-26T02:17:53.839Z,1006.57
2017-06-26T02:18:34.724Z,1006.55
2017-06-26T02:19:15.599Z,1006.53
2017-06-26T02:19:56.479Z,1006.53
2017-06-26T02:20:37.365Z,1006.53
2017-06-26T02:21:18.263Z,1006.54
2017-06-26T02:21:59.137Z,1006.47
2017-06-26T02:22:40.033Z,1006.48
2017-06-26T02:23:20.906Z,1006.47
2017-06-26T02:24:01.794Z,1006.47
2017-06-26T02:24:42.685Z,1006.46
2017-06-26T02:25:23.574Z,1006.43
2017-06-26T02:26:04.469Z,1006.43
2017-06-26T02:26:45.351Z,1006.41
2017-06-26T02:27:26.231Z,1006.39
2017-06-26T02:28:07.123Z,1006.43
2017-06-26T02:28:48.005Z,1006.4
2017-06-26T02:29:28.876Z,1006.36
2017-06-26T02:30:09.757Z,1006.34
2017-06-26T02:30:50.647Z,1006.35
2017-06-26T02:31:31.538Z,1006.35
2017-06-26T02:32:12.413Z,1006.35
2017-06-26T02:32:53.289Z,1006.37
2017-06-26T02:33:34.178Z,1006.35
2017-06-26T02:34:15.078Z,1006.35
2017-06-26T02:34:55.961Z,1006.31
2017-06-26T02:35:36.848Z,1006.3
2017-06-26T02:36:17.732Z,1006.27
2017-06-26T02:36:58.617Z,1006.26
2017-06-26T02:37:39.498Z,1006.2
2017-06-26T02:38:20.406Z,1006.21
2017-06-26T02:39:01.294Z,1006.16
2017-06-26T02:39:42.155Z,1006.17
2017-06-26T02:40:23.043Z,1006.13
2017-06-26T02:41:03.931Z,1006.16
2017-06-26T02:41:44.831Z,1006.13
2017-06-26T02:42:25.712Z,1006.14
2017-06-26T02:43:06.610Z,1006.12
2017-06-26T02:43:47.499Z,1006.09
2017-06-26T02:44:28.383Z,1006.11
2017-06-26T02:45:09.252Z,1006.08
2017-06-26T02:45:50.143Z,1006.04
2017-06-26T02:46:31.038Z,1006.08
2017-06-26T02:47:11.911Z,1006.03
2017-06-26T02:47:52.786Z,1006
2017-06-26T02:48:33.677Z,1005.99
2017-06-26T02:49:14.570Z,1005.97
2017-06-26T02:49:55.457Z,1005.95
2017-06-26T02:50:36.355Z,1005.96
2017-06-26T02:51:17.246Z,1005.94
2017-06-26T02:51:58.121Z,1005.97
2017-06-26T02:52:39.003Z,1005.93
2017-06-26T02:53:19.894Z,1005.94
2017-06-26T02:54:00.777Z,1005.9
2017-06-26T02:54:41.652Z,1005.92
2017-06-26T02:55:22.548Z,1005.91
2017-06-26T02:56:03.426Z,1005.85
2017-06-26T02:56:44.315Z,1005.88
2017-06-26T02:57:25.188Z,1005.89
2017-06-26T02:58:06.076Z,1005.9
2017-06-26T02:58:46.973Z,1005.9
2017-06-26T02:59:27.861Z,1005.91
2017-06-26T03:00:08.745Z,1005.96
2017-06-26T03:00:49.638Z,1005.98
2017-06-26T03:01:30.531Z,1005.99
2017-06-26T03:02:11.412Z,1005.96
2017-06-26T03:02:52.314Z,1006.03
2017-06-26T03:03:33.199Z,1005.97
2017-06-26T03:04:14.080Z,1005.99
2017-06-26T03:04:54.956Z,1005.95
2017-06-26T03:05:35.856Z,1005.96
2017-06-26T03:06:16.741Z,1006
2017-06-26T03:06:57.610Z,1005.98
2017-06-26T03:07:38.497Z,1006.03
2017-06-26T03:08:19.389Z,1006.03
2017-06-26T03:09:00.289Z,1006.03
2017-06-26T03:09:41.159Z,1006.03
2017-06-26T03:10:22.076Z,1006.09
2017-06-26T03:11:02.961Z,1006.12
2017-06-26T03:11:43.854Z,1006.12
2017-06-26T03:12:24.779Z,1006.14
2017-06-26T03:13:05.690Z,1006.14
2017-06-26T03:13:46.599Z,1006.17
2017-06-26T03:14:27.468Z,1006.16
2017-06-26T03:15:08.342Z,1006.14
2017-06-26T03:15:49.237Z,1006.16
2017-06-26T03:16:30.117Z,1006.15
2017-06-26T03:17:10.996Z,1006.19
2017-06-26T03:17:51.892Z,1006.17
2017-06-26T03:18:32.779Z,1006.19
2017-06-26T03:19:13.660Z,1006.22
2017-06-26T03:19:54.531Z,1006.15
2017-06-26T03:20:35.417Z,1006.2
2017-06-26T03:21:16.305Z,1006.2
2017-06-26T03:21:57.202Z,1006.21
2017-06-26T03:22:38.075Z,1006.19
2017-06-26T03:23:18.965Z,1006.22
2017-06-26T03:23:59.854Z,1006.19
2017-06-26T03:24:40.738Z,1006.19
2017-06-26T03:25:21.609Z,1006.19
2017-06-26T03:26:02.489Z,1006.18
2017-06-26T03:26:43.385Z,1006.23
2017-06-26T03:27:24.258Z,1006.24
2017-06-26T03:28:05.131Z,1006.26
2017-06-26T03:28:46.032Z,1006.26
2017-06-26T03:29:26.907Z,1006.29
2017-06-26T03:30:07.802Z,1006.28
2017-06-26T03:30:48.696Z,1006.32
2017-06-26T03:31:29.591Z,1006.33
2017-06-26T03:32:10.477Z,1006.31
2017-06-26T03:32:51.359Z,1006.3
2017-06-26T03:33:32.238Z,1006.3
2017-06-26T03:34:13.129Z,1006.26
2017-06-26T03:34:54.014Z,1006.29
2017-06-26T03:35:34.914Z,1006.25
2017-06-26T03:36:15.804Z,1006.28
2017-06-26T03:36:56.690Z,1006.23
2017-06-26T03:37:37.569Z,1006.25
2017-06-26T03:38:18.449Z,1006.22
2017-06-26T03:38:59.345Z,1006.19
2017-06-26T03:39:40.230Z,1006.24
2017-06-26T03:40:21.097Z,1006.2
2017-06-26T03:41:01.985Z,1006.25
2017-06-26T03:41:42.884Z,1006.26
2017-06-26T03:42:23.772Z,1006.26
2017-06-26T03:43:04.658Z,1006.26
2017-06-26T03:43:45.547Z,1006.2
2017-06-26T03:44:26.437Z,1006.21
2017-06-26T03:45:07.309Z,1006.21
2017-06-26T03:45:48.209Z,1006.2
2017-06-26T03:46:29.095Z,1006.21
2017-06-26T03:47:09.983Z,1006.21
2017-06-26T03:47:50.874Z,1006.21
2017-06-26T03:48:31.770Z,1006.18
2017-06-26T03:49:12.654Z,1006.2
2017-06-26T03:49:53.541Z,1006.15
2017-06-26T03:50:34.445Z,1006.16
2017-06-26T03:51:15.325Z,1006.14
2017-06-26T03:51:56.201Z,1006.13
2017-06-26T03:52:37.107Z,1006.1
2017-06-26T03:53:18.001Z,1006.08
2017-06-26T03:53:58.886Z,1006.09
2017-06-26T03:54:39.774Z,1006.05
2017-06-26T03:55:20.657Z,1006
2017-06-26T03:56:01.538Z,1005.97
2017-06-26T03:56:42.397Z,1005.92
2017-06-26T03:57:23.295Z,1005.93
2017-06-26T03:58:04.190Z,1005.89
2017-06-26T03:58:45.063Z,1005.89
2017-06-26T03:59:25.948Z,1005.87
2017-06-26T04:00:06.836Z,1005.87
2017-06-26T04:00:47.725Z,1005.85
2017-06-26T04:01:28.608Z,1005.86
2017-06-26T04:02:09.485Z,1005.86
2017-06-26T04:02:50.354Z,1005.85
2017-06-26T04:03:31.248Z,1005.83
2017-06-26T04:04:12.143Z,1005.82
2017-06-26T04:04:53.042Z,1005.82
2017-06-26T04:05:33.935Z,1005.86
2017-06-26T04:06:14.827Z,1005.86
2017-06-26T04:06:55.697Z,1005.82
2017-06-26T04:07:36.573Z,1005.85
2017-06-26T04:08:17.470Z,1005.85
2017-06-26T04:08:58.357Z,1005.83
2017-06-26T04:09:39.234Z,1005.79
2017-06-26T04:10:20.114Z,1005.78
2017-06-26T04:11:01.000Z,1005.79
2017-06-26T04:11:41.896Z,1005.75
2017-06-26T04:12:22.769Z,1005.77
2017-06-26T04:13:03.656Z,1005.78
2017-06-26T04:13:44.548Z,1005.81
2017-06-26T04:14:25.435Z,1005.85
2017-06-26T04:15:06.366Z,1005.84
2017-06-26T04:15:47.262Z,1005.82
2017-06-26T04:16:28.148Z,1005.83
2017-06-26T04:17:09.035Z,1005.83
2017-06-26T04:17:49.921Z,1005.8
2017-06-26T04:18:30.819Z,1005.84
2017-06-26T04:19:11.705Z,1005.85
2017-06-26T04:19:52.598Z,1005.8
2017-06-26T04:20:33.486Z,1005.77
2017-06-26T04:21:14.382Z,1005.79
2017-06-26T04:21:55.293Z,1005.77
2017-06-26T04:22:36.244Z,1005.77
2017-06-26T04:23:17.126Z,1005.77
2017-06-26T04:23:58.022Z,1005.72
2017-06-26T04:24:38.904Z,1005.74
2017-06-26T04:25:19.794Z,1005.78
2017-06-26T04:26:00.711Z,1005.78
2017-06-26T04:26:41.596Z,1005.77
2017-06-26T04:27:22.467Z,1005.78
2017-06-26T04:28:03.344Z,1005.76
2017-06-26T04:28:44.233Z,1005.77
2017-06-26T04:29:25.111Z,1005.76
2017-06-26T04:30:06.001Z,1005.76
2017-06-26T04:30:46.950Z,1005.74
2017-06-26T04:31:27.802Z,1005.74
2017-06-26T04:32:08.691Z,1005.74
2017-06-26T04:32:49.593Z,1005.8
2017-06-26T04:33:30.467Z,1005.78
2017-06-26T04:34:11.359Z,1005.81
2017-06-26T04:34:52.258Z,1005.81
2017-06-26T04:35:33.126Z,1005.84
2017-06-26T04:36:14.019Z,1005.79
2017-06-26T04:38:07.630Z,1005.79
2017-06-26T04:38:48.511Z,1005.79
2017-06-26T04:39:29.384Z,1005.77
2017-06-26T04:40:10.271Z,1005.77
2017-06-26T04:40:51.170Z,1005.76
2017-06-26T04:41:32.039Z,1005.74
2017-06-26T04:42:12.915Z,1005.77
2017-06-26T04:42:53.805Z,1005.75
2017-06-26T04:43:34.709Z,1005.71
2017-06-26T04:44:15.588Z,1005.72
2017-06-26T04:44:56.473Z,1005.7
2017-06-26T04:45:37.374Z,1005.71
2017-06-26T04:46:18.255Z,1005.68
2017-06-26T04:46:59.142Z,1005.75
2017-06-26T04:47:40.046Z,1005.7
2017-06-26T04:48:20.935Z,1005.69
2017-06-26T04:49:01.832Z,1005.73
2017-06-26T04:49:42.720Z,1005.7
2017-06-26T04:50:23.623Z,1005.74
2017-06-26T04:51:04.511Z,1005.73
2017-06-26T04:51:45.400Z,1005.71
2017-06-26T04:52:26.307Z,1005.68
2017-06-26T04:53:07.181Z,1005.65
2017-06-26T04:53:48.074Z,1005.65
2017-06-26T04:54:28.955Z,1005.65
2017-06-26T04:55:09.848Z,1005.61
2017-06-26T04:55:50.732Z,1005.62
2017-06-26T04:56:31.607Z,1005.59
2017-06-26T04:57:12.524Z,1005.63
2017-06-26T04:57:53.406Z,1005.59
2017-06-26T04:58:34.284Z,1005.59
2017-06-26T04:59:15.171Z,1005.57
2017-06-26T04:59:56.066Z,1005.58
2017-06-26T05:00:36.959Z,1005.56
2017-06-26T05:01:17.846Z,1005.6
2017-06-26T05:01:58.740Z,1005.66
2017-06-26T05:02:39.631Z,1005.67
2017-06-26T05:03:20.512Z,1005.64
2017-06-26T05:04:01.411Z,1005.6
2017-06-26T05:04:42.306Z,1005.58
2017-06-26T05:05:23.196Z,1005.61
2017-06-26T05:06:04.093Z,1005.6
2017-06-26T05:06:44.984Z,1005.6
2017-06-26T05:07:25.879Z,1005.55
2017-06-26T05:08:06.773Z,1005.53
2017-06-26T05:08:47.660Z,1005.56
2017-06-26T05:09:28.535Z,1005.6
2017-06-26T05:10:09.430Z,1005.58
2017-06-26T05:10:50.309Z,1005.59
2017-06-26T05:11:31.199Z,1005.52
2017-06-26T05:12:12.089Z,1005.52
2017-06-26T05:12:52.976Z,1005.54
2017-06-26T05:13:33.868Z,1005.53
2017-06-26T05:14:14.744Z,1005.54
2017-06-26T05:14:55.640Z,1005.55
2017-06-26T05:15:36.533Z,1005.55
2017-06-26T05:16:17.422Z,1005.55
2017-06-26T05:16:58.315Z,1005.52
2017-06-26T05:17:39.208Z,1005.52
2017-06-26T05:18:20.105Z,1005.49
2017-06-26T05:19:00.970Z,1005.51
2017-06-26T05:19:41.866Z,1005.5
2017-06-26T05:20:22.752Z,1005.5
2017-06-26T05:21:03.627Z,1005.52
2017-06-26T05:21:44.522Z,1005.54
2017-06-26T05:22:25.445Z,1005.55
2017-06-26T05:23:06.341Z,1005.53
2017-06-26T05:23:47.238Z,1005.53
2017-06-26T05:24:28.115Z,1005.5
2017-06-26T05:25:09.004Z,1005.48
2017-06-26T05:25:49.896Z,1005.44
2017-06-26T05:26:30.783Z,1005.45
2017-06-26T05:27:11.661Z,1005.45
2017-06-26T05:27:52.543Z,1005.43
2017-06-26T05:28:33.439Z,1005.45
2017-06-26T05:29:14.335Z,1005.45
2017-06-26T05:29:55.226Z,1005.45
2017-06-26T05:30:36.116Z,1005.44
2017-06-26T05:31:17.010Z,1005.39
2017-06-26T05:31:57.897Z,1005.41
2017-06-26T05:32:38.788Z,1005.43
2017-06-26T05:33:19.679Z,1005.38
2017-06-26T05:34:00.561Z,1005.4
2017-06-26T05:34:41.473Z,1005.38
2017-06-26T05:35:22.363Z,1005.37
2017-06-26T05:36:03.254Z,1005.4
2017-06-26T05:36:44.156Z,1005.44
2017-06-26T05:37:25.064Z,1005.41
2017-06-26T05:38:05.956Z,1005.39
2017-06-26T05:38:46.843Z,1005.36
2017-06-26T05:39:27.737Z,1005.39
2017-06-26T05:40:08.635Z,1005.43
2017-06-26T05:40:49.531Z,1005.41
2017-06-26T05:41:30.424Z,1005.46
2017-06-26T05:42:11.313Z,1005.47
2017-06-26T05:42:52.207Z,1005.51
2017-06-26T05:43:33.092Z,1005.55
2017-06-26T05:44:13.970Z,1005.56
2017-06-26T05:44:54.858Z,1005.54
2017-06-26T05:45:35.748Z,1005.52
2017-06-26T05:46:16.651Z,1005.52
2017-06-26T05:46:57.528Z,1005.53
2017-06-26T05:47:38.416Z,1005.49
2017-06-26T05:48:19.308Z,1005.53
2017-06-26T05:49:00.198Z,1005.52
2017-06-26T05:49:41.085Z,1005.51
2017-06-26T05:50:21.974Z,1005.53
2017-06-26T05:51:02.861Z,1005.51
2017-06-26T05:51:43.743Z,1005.52
2017-06-26T05:52:24.611Z,1005.51
2017-06-26T05:53:05.626Z,1005.51
2017-06-26T05:53:46.666Z,1005.51
2017-06-26T05:54:27.591Z,1005.54
2017-06-26T05:55:08.443Z,1005.57
2017-06-26T05:55:49.326Z,1005.57
2017-06-26T05:56:30.203Z,1005.59
2017-06-26T05:57:11.120Z,1005.64
2017-06-26T05:57:51.983Z,1005.64
2017-06-26T05:58:32.883Z,1005.61
2017-06-26T05:59:13.768Z,1005.67
2017-06-26T05:59:54.653Z,1005.68
2017-06-26T06:00:35.519Z,1005.65
2017-06-26T06:01:16.411Z,1005.68
2017-06-26T06:01:57.292Z,1005.68
2017-06-26T06:02:38.184Z,1005.67
2017-06-26T06:03:19.055Z,1005.63
2017-06-26T06:03:59.942Z,1005.6
2017-06-26T06:04:40.834Z,1005.59
2017-06-26T06:05:21.718Z,1005.63
2017-06-26T06:06:02.602Z,1005.65
2017-06-26T06:06:43.538Z,1005.66
2017-06-26T06:07:24.405Z,1005.63
2017-06-26T06:08:05.296Z,1005.67
2017-06-26T06:08:46.197Z,1005.65
2017-06-26T06:09:27.078Z,1005.65
2017-06-26T06:10:07.969Z,1005.64
2017-06-26T06:10:48.860Z,1005.67
2017-06-26T06:11:29.747Z,1005.67
2017-06-26T06:12:10.638Z,1005.69
2017-06-26T06:12:51.549Z,1005.7
2017-06-26T06:13:32.432Z,1005.71
2017-06-26T06:14:13.307Z,1005.7
2017-06-26T06:14:54.201Z,1005.71
2017-06-26T06:15:35.069Z,1005.74
2017-06-26T06:16:15.953Z,1005.75
2017-06-26T06:16:56.842Z,1005.82
2017-06-26T06:17:37.749Z,1005.8
2017-06-26T06:18:18.650Z,1005.86
2017-06-26T06:18:59.527Z,1005.86
2017-06-26T06:19:40.423Z,1005.87
2017-06-26T06:20:21.331Z,1005.89
2017-06-26T06:21:02.271Z,1005.94
2017-06-26T06:21:43.148Z,1005.9
2017-06-26T06:22:24.044Z,1005.9
2017-06-26T06:23:04.931Z,1005.89
2017-06-26T06:23:45.807Z,1005.96
2017-06-26T06:24:26.708Z,1005.91
2017-06-26T06:25:59.973Z,1006
2017-06-26T06:26:40.836Z,1005.93
2017-06-26T06:27:21.737Z,1005.97
2017-06-26T06:28:02.628Z,1005.96
2017-06-26T06:28:43.536Z,1005.97
2017-06-26T06:29:24.422Z,1005.97
2017-06-26T06:30:05.302Z,1006.03
2017-06-26T06:30:46.170Z,1006.08
2017-06-26T06:31:27.054Z,1006.1
2017-06-26T06:32:07.944Z,1006.13
2017-06-26T06:32:48.841Z,1006.17
2017-06-26T06:33:29.718Z,1006.18
2017-06-26T06:34:10.611Z,1006.22
2017-06-26T06:34:51.502Z,1006.24
2017-06-26T06:35:32.393Z,1006.21
2017-06-26T06:36:13.296Z,1006.26
2017-06-26T06:36:54.182Z,1006.28
2017-06-26T06:37:35.075Z,1006.28
2017-06-26T06:38:15.944Z,1006.32
2017-06-26T06:38:56.868Z,1006.34
2017-06-26T06:41:05.871Z,1006.34
2017-06-26T06:41:46.751Z,1006.35
2017-06-26T06:42:27.656Z,1006.37
2017-06-26T06:43:08.556Z,1006.34
2017-06-26T06:43:49.441Z,1006.4
2017-06-26T06:44:30.327Z,1006.42
2017-06-26T06:45:11.219Z,1006.42
2017-06-26T06:45:52.103Z,1006.52
2017-06-26T06:46:32.992Z,1006.52
2017-06-26T06:47:13.877Z,1006.57
2017-06-26T06:47:54.767Z,1006.58
2017-06-26T06:48:35.703Z,1006.6
2017-06-26T06:49:16.610Z,1006.64
2017-06-26T06:49:57.504Z,1006.61
2017-06-26T06:50:38.388Z,1006.66
2017-06-26T06:51:19.281Z,1006.7
2017-06-26T06:52:00.153Z,1006.72
2017-06-26T06:52:41.048Z,1006.75
2017-06-26T06:53:21.995Z,1006.74
2017-06-26T06:54:02.876Z,1006.74
2017-06-26T06:54:43.766Z,1006.72
2017-06-26T06:55:24.647Z,1006.77
2017-06-26T06:56:05.542Z,1006.73
2017-06-26T06:56:46.430Z,1006.74
2017-06-26T06:57:27.320Z,1006.73
2017-06-26T06:58:08.235Z,1006.7
2017-06-26T06:58:49.122Z,1006.68
2017-06-26T06:59:30.013Z,1006.66
2017-06-26T07:00:10.902Z,1006.69
2017-06-26T07:00:51.788Z,1006.7
2017-06-26T07:01:32.677Z,1006.71
2017-06-26T07:02:13.583Z,1006.7
2017-06-26T07:02:54.475Z,1006.7
2017-06-26T07:03:35.362Z,1006.67
2017-06-26T07:04:16.255Z,1006.72
2017-06-26T07:04:57.147Z,1006.66
2017-06-26T07:05:38.037Z,1006.66
2017-06-26T07:06:18.928Z,1006.7
2017-06-26T07:06:59.850Z,1006.72
2017-06-26T07:07:40.706Z,1006.7
2017-06-26T07:08:21.605Z,1006.74
2017-06-26T07:09:02.492Z,1006.69
2017-06-26T07:09:43.397Z,1006.73
2017-06-26T07:10:24.291Z,1006.69
2017-06-26T07:11:05.179Z,1006.76
2017-06-26T07:11:46.068Z,1006.8
2017-06-26T07:12:26.946Z,1006.83
2017-06-26T07:13:07.834Z,1006.85
2017-06-26T07:13:48.727Z,1006.86
2017-06-26T07:14:29.622Z,1006.85
2017-06-26T07:15:10.503Z,1006.83
2017-06-26T07:15:51.375Z,1006.83
2017-06-26T07:16:32.264Z,1006.86
2017-06-26T07:17:13.155Z,1006.91
2017-06-26T07:17:54.044Z,1006.88
2017-06-26T07:18:34.942Z,1006.86
2017-06-26T07:19:15.816Z,1006.86
2017-06-26T07:19:56.718Z,1006.85
2017-06-26T07:20:37.605Z,1006.85
2017-06-26T07:21:18.480Z,1006.86
2017-06-26T07:21:59.397Z,1006.86
2017-06-26T07:22:40.280Z,1006.86
2017-06-26T07:23:21.175Z,1006.86
2017-06-26T07:24:02.062Z,1006.86
2017-06-26T07:24:42.951Z,1006.93
2017-06-26T07:25:23.843Z,1006.91
2017-06-26T07:26:04.737Z,1006.89
2017-06-26T07:26:45.616Z,1006.87
2017-06-26T07:27:26.511Z,1006.84
2017-06-26T07:28:07.408Z,1006.85
2017-06-26T07:28:48.295Z,1006.79
2017-06-26T07:29:29.182Z,1006.75
2017-06-26T07:30:10.072Z,1006.73
2017-06-26T07:30:50.979Z,1006.73
2017-06-26T07:31:31.852Z,1006.72
2017-06-26T07:32:12.747Z,1006.69
2017-06-26T07:32:53.632Z,1006.68
2017-06-26T07:33:34.521Z,1006.65
2017-06-26T07:34:15.415Z,1006.6
2017-06-26T07:34:56.306Z,1006.63
2017-06-26T07:35:37.196Z,1006.69
2017-06-26T07:36:18.092Z,1006.71
2017-06-26T07:36:58.981Z,1006.73
2017-06-26T07:37:39.870Z,1006.75
2017-06-26T07:38:20.767Z,1006.76
2017-06-26T07:39:01.651Z,1006.81
2017-06-26T07:39:42.527Z,1006.78
2017-06-26T07:40:23.418Z,1006.78
2017-06-26T07:41:04.312Z,1006.75
2017-06-26T07:41:45.199Z,1006.81
2017-06-26T07:42:26.120Z,1006.84
2017-06-26T07:43:07.013Z,1006.82
2017-06-26T07:43:47.911Z,1006.83
2017-06-26T07:44:28.799Z,1006.82
2017-06-26T07:45:09.684Z,1006.8
2017-06-26T07:45:50.558Z,1006.77
2017-06-26T07:46:31.448Z,1006.74
2017-06-26T07:47:12.340Z,1006.76
2017-06-26T07:47:53.233Z,1006.8
2017-06-26T07:48:34.110Z,1006.85
2017-06-26T07:49:15.008Z,1006.87
2017-06-26T07:49:55.896Z,1006.86
2017-06-26T07:50:36.791Z,1006.89
2017-06-26T07:51:17.676Z,1006.95
2017-06-26T07:51:58.569Z,1006.9
2017-06-26T07:52:39.461Z,1006.9
2017-06-26T07:53:20.357Z,1006.94
2017-06-26T07:54:01.245Z,1006.89
2017-06-26T07:54:42.140Z,1006.93
2017-06-26T07:55:23.028Z,1006.84
2017-06-26T07:56:03.917Z,1006.83
2017-06-26T07:56:44.802Z,1006.88
2017-06-26T07:57:25.702Z,1006.91
2017-06-26T07:58:06.594Z,1006.98
2017-06-26T07:58:47.505Z,1007.01
2017-06-26T07:59:28.406Z,1007.01
2017-06-26T08:00:09.318Z,1007.02
2017-06-26T08:00:50.210Z,1007.03
2017-06-26T08:01:31.119Z,1006.99
2017-06-26T08:02:12.011Z,1006.99
2017-06-26T08:02:52.899Z,1007
2017-06-26T08:03:33.798Z,1006.96
2017-06-26T08:04:14.694Z,1006.96
2017-06-26T08:04:55.591Z,1006.97
2017-06-26T08:05:36.505Z,1007.01
2017-06-26T08:06:17.405Z,1007.03
2017-06-26T08:06:58.314Z,1007
2017-06-26T08:07:39.270Z,1007.05
2017-06-26T08:08:20.147Z,1007.06
2017-06-26T08:09:01.037Z,1007.09
2017-06-26T08:09:41.935Z,1007.15
2017-06-26T08:10:22.826Z,1007.12
2017-06-26T08:11:03.721Z,1007.12
2017-06-26T08:11:44.618Z,1007.09
2017-06-26T08:12:25.514Z,1007.04
2017-06-26T08:13:06.408Z,1007.04
2017-06-26T08:13:47.301Z,1007.11
2017-06-26T08:14:28.197Z,1007.11
2017-06-26T08:15:09.094Z,1007.15
2017-06-26T08:15:50.034Z,1007.13
2017-06-26T08:16:30.898Z,1007.13
2017-06-26T08:17:11.816Z,1007.12
2017-06-26T08:17:52.715Z,1007.14
2017-06-26T08:18:33.618Z,1007.16
2017-06-26T08:19:14.531Z,1007.18
2017-06-26T08:19:55.422Z,1007.23
2017-06-26T08:20:36.324Z,1007.26
2017-06-26T08:21:17.215Z,1007.22